Time;durP1;ratioP1;P1;durP2;ratioP2;P2;SDS_P1;SDS_P2;PMS_P1;PMS_P2;Temp;Humidity;BMP_temperature;BMP_pressure;BME280_temperature;BME280_humidity;BME280_pressure;Samples;Min_cycle;Max_cycle;Signal;HPM_P1;HPM_P2
2022/05/14 00:01:16;;;;;;;5.47;3.80;;;;;;;;;;5069359;28;20265;-74
2022/05/14 00:03:47;;;;;;;5.00;4.33;;;;;;;;;;5070989;28;20230;-75
2022/05/14 00:06:17;;;;;;;5.47;4.20;;;;;;;;;;5078903;28;20230;-71
2022/05/14 00:08:45;;;;;;;6.30;4.77;;;;;;;;;;5069645;28;20211;-74
2022/05/14 00:14:00;;;;;;;6.13;4.23;;;;;;;;;;5058981;28;20213;-74
2022/05/14 00:16:28;;;;;;;5.33;4.10;;;;;;;;;;5058866;28;20228;-74
2022/05/14 00:18:58;;;;;;;7.77;4.20;;;;;;;;;;5058462;28;20214;-74
2022/05/14 00:21:26;;;;;;;3.77;3.37;;;;;;;;;;5058792;28;20199;-74
2022/05/14 00:23:54;;;;;;;6.67;4.37;;;;;;;;;;5074161;28;20665;-74
2022/05/14 00:26:22;;;;;;;7.30;4.60;;;;;;;;;;5078578;28;20270;-74
2022/05/14 00:28:50;;;;;;;6.27;4.43;;;;;;;;;;5077193;28;20198;-75
2022/05/14 00:31:18;;;;;;;8.37;4.67;;;;;;;;;;5078342;28;20255;-74
2022/05/14 00:33:46;;;;;;;4.93;4.37;;;;;;;;;;5061639;28;20669;-74
2022/05/14 00:36:16;;;;;;;5.17;4.33;;;;;;;;;;5069100;28;20262;-75
2022/05/14 00:38:44;;;;;;;4.90;4.10;;;;;;;;;;5065446;28;20216;-75
2022/05/14 00:41:12;;;;;;;9.57;4.20;;;;;;;;;;5060630;28;20204;-74
2022/05/14 00:43:48;;;;;;;5.43;3.93;;;;;;;;;;5058403;28;20211;-75
2022/05/14 00:46:17;;;;;;;7.23;4.60;;;;;;;;;;5058047;28;20233;-74
2022/05/14 00:48:46;;;;;;;5.20;3.87;;;;;;;;;;5058003;28;20229;-74
2022/05/14 00:51:17;;;;;;;6.97;3.77;;;;;;;;;;5058300;28;20230;-74
2022/05/14 00:53:48;;;;;;;6.70;4.00;;;;;;;;;;5058350;28;20231;-74
2022/05/14 00:56:19;;;;;;;5.63;3.97;;;;;;;;;;5058224;28;20253;-74
2022/05/14 00:58:49;;;;;;;4.47;3.80;;;;;;;;;;5061448;28;20198;-74
2022/05/14 01:01:17;;;;;;;4.20;3.80;;;;;;;;;;5068267;28;20697;-74
2022/05/14 01:03:46;;;;;;;11.00;5.07;;;;;;;;;;5068540;28;20245;-74
2022/05/14 01:06:16;;;;;;;3.83;3.40;;;;;;;;;;5078080;28;20311;-74
2022/05/14 01:08:46;;;;;;;7.67;4.60;;;;;;;;;;5077484;28;20205;-74
2022/05/14 01:11:19;;;;;;;8.43;4.77;;;;;;;;;;5077788;28;20696;-74
2022/05/14 01:13:47;;;;;;;5.73;4.20;;;;;;;;;;5077789;28;20206;-74
2022/05/14 01:16:15;;;;;;;4.53;3.70;;;;;;;;;;5075506;28;20219;-75
2022/05/14 01:18:44;;;;;;;7.67;4.77;;;;;;;;;;5070482;28;20220;-74
2022/05/14 01:21:14;;;;;;;6.20;4.27;;;;;;;;;;5057690;28;20211;-74
2022/05/14 01:26:35;;;;;;;4.67;4.20;;;;;;;;;;5075335;28;20225;-76
2022/05/14 01:29:05;;;;;;;5.93;4.33;;;;;;;;;;5076915;28;20209;-74
2022/05/14 01:31:34;;;;;;;8.50;4.70;;;;;;;;;;5076980;28;20264;-75
2022/05/14 01:34:05;;;;;;;7.80;3.60;;;;;;;;;;5058441;28;20588;-74
2022/05/14 01:36:33;;;;;;;5.37;4.40;;;;;;;;;;5068502;28;20225;-73
2022/05/14 01:39:01;;;;;;;5.63;3.80;;;;;;;;;;5057530;28;20212;-74
2022/05/14 01:41:29;;;;;;;6.33;3.90;;;;;;;;;;5064653;28;20241;-74
2022/05/14 01:43:59;;;;;;;8.30;4.33;;;;;;;;;;5077304;28;20641;-74
2022/05/14 01:46:27;;;;;;;8.10;3.87;;;;;;;;;;5077153;28;20257;-74
2022/05/14 01:52:23;;;;;;;7.37;3.53;;;;;;;;;;5076763;28;20237;-73
2022/05/14 01:54:51;;;;;;;4.07;3.70;;;;;;;;;;5076865;28;20225;-74
2022/05/14 01:57:19;;;;;;;7.43;4.20;;;;;;;;;;5057526;28;20261;-74
2022/05/14 01:59:49;;;;;;;4.53;3.80;;;;;;;;;;5068898;28;20264;-74
2022/05/14 02:02:17;;;;;;;8.03;4.50;;;;;;;;;;5058659;28;20191;-73
2022/05/14 02:04:45;;;;;;;6.60;4.40;;;;;;;;;;5056811;28;20632;-74
2022/05/14 02:07:13;;;;;;;6.10;3.80;;;;;;;;;;5059725;28;20234;-74
2022/05/14 02:09:42;;;;;;;4.33;3.93;;;;;;;;;;5061039;28;20211;-73
2022/05/14 02:12:10;;;;;;;6.13;4.47;;;;;;;;;;5081251;28;20230;-74
2022/05/14 02:14:38;;;;;;;5.30;4.50;;;;;;;;;;5081370;28;20260;-74
2022/05/14 02:17:08;;;;;;;6.30;4.33;;;;;;;;;;5068955;28;20702;-74
2022/05/14 02:19:36;;;;;;;5.13;4.13;;;;;;;;;;5060984;28;20203;-74
2022/05/14 02:22:05;;;;;;;4.23;3.83;;;;;;;;;;5060984;28;20706;-73
2022/05/14 02:24:33;;;;;;;6.20;4.27;;;;;;;;;;5061109;28;20243;-74
2022/05/14 02:27:01;;;;;;;7.23;3.90;;;;;;;;;;5070689;28;20277;-74
2022/05/14 02:29:50;;;;;;;6.57;4.00;;;;;;;;;;5063037;28;20198;-74
2022/05/14 02:32:20;;;;;;;7.03;4.30;;;;;;;;;;5069135;28;20221;-74
2022/05/14 02:34:49;;;;;;;5.40;3.80;;;;;;;;;;5063824;28;20228;-74
2022/05/14 02:37:17;;;;;;;5.27;3.87;;;;;;;;;;5068512;28;20227;-74
2022/05/14 02:39:45;;;;;;;4.30;3.97;;;;;;;;;;5062524;28;20242;-74
2022/05/14 02:42:13;;;;;;;5.20;3.63;;;;;;;;;;5081074;28;20260;-74
2022/05/14 02:44:42;;;;;;;7.63;3.60;;;;;;;;;;5080469;28;20210;-74
2022/05/14 02:47:10;;;;;;;3.67;3.27;;;;;;;;;;5080680;28;20229;-74
2022/05/14 02:49:39;;;;;;;7.03;3.27;;;;;;;;;;5080363;28;20213;-74
2022/05/14 02:52:08;;;;;;;7.07;4.83;;;;;;;;;;5080193;28;20646;-74
2022/05/14 02:54:36;;;;;;;4.87;4.13;;;;;;;;;;5078137;28;20203;-74
2022/05/14 02:57:04;;;;;;;5.60;3.90;;;;;;;;;;5076732;28;20625;-73
2022/05/14 02:59:32;;;;;;;8.33;3.93;;;;;;;;;;5080366;28;20575;-74
2022/05/14 03:02:03;;;;;;;4.03;3.73;;;;;;;;;;5064089;28;20261;-73
2022/05/14 03:04:32;;;;;;;5.77;3.57;;;;;;;;;;5059930;28;20230;-73
2022/05/14 03:07:02;;;;;;;6.57;4.10;;;;;;;;;;5060274;28;20227;-74
2022/05/14 03:09:30;;;;;;;5.60;4.13;;;;;;;;;;5059823;28;20235;-74
2022/05/14 03:11:58;;;;;;;4.87;4.40;;;;;;;;;;5079858;28;20574;-73
2022/05/14 03:14:26;;;;;;;10.27;4.27;;;;;;;;;;5079944;28;20257;-74
2022/05/14 03:16:54;;;;;;;5.90;4.50;;;;;;;;;;5069346;28;20223;-74
2022/05/14 03:19:22;;;;;;;4.90;4.03;;;;;;;;;;5059818;28;20260;-74
2022/05/14 03:21:50;;;;;;;4.87;4.07;;;;;;;;;;5059962;28;20211;-75
2022/05/14 03:24:20;;;;;;;6.23;3.83;;;;;;;;;;5060121;28;20229;-74
2022/05/14 03:26:48;;;;;;;5.27;3.93;;;;;;;;;;5072848;28;20222;-74
2022/05/14 03:29:16;;;;;;;7.40;3.80;;;;;;;;;;5069974;28;20340;-73
2022/05/14 03:31:45;;;;;;;4.50;4.10;;;;;;;;;;5069308;28;20202;-73
2022/05/14 03:34:13;;;;;;;4.40;3.63;;;;;;;;;;5067317;28;20219;-73
2022/05/14 03:36:42;;;;;;;7.03;4.53;;;;;;;;;;5069753;28;20222;-72
2022/05/14 03:39:11;;;;;;;6.57;3.90;;;;;;;;;;5070129;28;20209;-73
2022/05/14 03:41:40;;;;;;;5.17;3.50;;;;;;;;;;5070372;28;20650;-71
2022/05/14 03:44:09;;;;;;;6.33;4.00;;;;;;;;;;5071740;28;20199;-73
2022/05/14 03:46:37;;;;;;;5.50;3.47;;;;;;;;;;5069539;28;20214;-74
2022/05/14 03:49:05;;;;;;;7.13;3.77;;;;;;;;;;5069040;28;20206;-74
2022/05/14 03:51:33;;;;;;;5.17;4.20;;;;;;;;;;5070963;28;20225;-74
2022/05/14 03:54:01;;;;;;;4.47;3.93;;;;;;;;;;5067348;28;20218;-75
2022/05/14 03:56:29;;;;;;;8.13;4.63;;;;;;;;;;5069519;28;20271;-74
2022/05/14 03:58:59;;;;;;;5.47;4.20;;;;;;;;;;5070305;28;20198;-74
2022/05/14 04:01:27;;;;;;;6.73;4.13;;;;;;;;;;5066859;28;20701;-74
2022/05/14 04:03:55;;;;;;;5.30;3.70;;;;;;;;;;5073932;28;20290;-75
2022/05/14 04:06:23;;;;;;;6.97;3.90;;;;;;;;;;5078769;28;20234;-75
2022/05/14 04:08:51;;;;;;;6.63;4.60;;;;;;;;;;5078723;28;20640;-75
2022/05/14 04:11:19;;;;;;;5.13;3.93;;;;;;;;;;5079260;28;20214;-75
2022/05/14 04:13:47;;;;;;;6.87;3.97;;;;;;;;;;5079275;28;20248;-75
2022/05/14 04:16:16;;;;;;;4.13;3.37;;;;;;;;;;5063107;28;20265;-75
2022/05/14 04:18:45;;;;;;;5.97;3.97;;;;;;;;;;5065977;28;20206;-75
2022/05/14 04:21:13;;;;;;;7.10;4.30;;;;;;;;;;5078856;28;20214;-75
2022/05/14 04:23:41;;;;;;;4.73;3.60;;;;;;;;;;5078543;28;20669;-75
2022/05/14 04:26:09;;;;;;;5.57;3.33;;;;;;;;;;5078686;28;20226;-75
2022/05/14 04:28:37;;;;;;;5.30;3.40;;;;;;;;;;5076237;28;20199;-75
2022/05/14 04:31:05;;;;;;;4.73;3.77;;;;;;;;;;5076223;28;20297;-74
2022/05/14 04:33:35;;;;;;;6.90;4.30;;;;;;;;;;5072109;28;20250;-74
2022/05/14 04:36:03;;;;;;;4.80;3.57;;;;;;;;;;5070010;28;20257;-74
2022/05/14 04:38:31;;;;;;;9.70;3.50;;;;;;;;;;5066876;28;20249;-70
2022/05/14 04:40:59;;;;;;;5.23;3.73;;;;;;;;;;5069464;28;20202;-74
2022/05/14 04:43:27;;;;;;;6.23;5.33;;;;;;;;;;5073610;28;20747;-74
2022/05/14 04:45:55;;;;;;;5.33;3.70;;;;;;;;;;5072654;28;20273;-74
2022/05/14 04:48:23;;;;;;;4.03;3.40;;;;;;;;;;5069089;28;20564;-65
2022/05/14 04:50:54;;;;;;;7.73;4.50;;;;;;;;;;5071339;28;20202;-65
2022/05/14 04:53:22;;;;;;;8.87;4.53;;;;;;;;;;5072074;28;20630;-65
2022/05/14 04:55:50;;;;;;;4.50;4.10;;;;;;;;;;5070707;28;20697;-65
2022/05/14 04:58:18;;;;;;;4.33;3.73;;;;;;;;;;5074182;28;20620;-64
2022/05/14 05:00:46;;;;;;;8.17;4.30;;;;;;;;;;5076380;28;20202;-64
2022/05/14 05:03:17;;;;;;;5.53;4.07;;;;;;;;;;5076648;28;20719;-65
2022/05/14 05:05:45;;;;;;;6.87;3.70;;;;;;;;;;5068334;28;20272;-70
2022/05/14 05:08:15;;;;;;;4.57;3.97;;;;;;;;;;5065543;28;20249;-72
2022/05/14 05:10:43;;;;;;;9.73;4.17;;;;;;;;;;5066395;28;20252;-72
2022/05/14 05:13:13;;;;;;;5.67;3.63;;;;;;;;;;5077371;28;20202;-70
2022/05/14 05:15:41;;;;;;;9.70;3.67;;;;;;;;;;5061339;28;20227;-71
2022/05/14 05:18:10;;;;;;;8.00;3.27;;;;;;;;;;5074284;28;20546;-71
2022/05/14 05:20:39;;;;;;;5.50;3.17;;;;;;;;;;5057451;28;20210;-70
2022/05/14 05:23:07;;;;;;;7.57;4.03;;;;;;;;;;5058136;28;20207;-71
2022/05/14 05:25:36;;;;;;;7.10;3.30;;;;;;;;;;5068391;28;20280;-71
2022/05/14 05:28:05;;;;;;;6.20;3.43;;;;;;;;;;5058903;28;20229;-71
2022/05/14 05:30:33;;;;;;;6.63;3.97;;;;;;;;;;5057310;28;20211;-71
2022/05/14 05:33:01;;;;;;;3.87;3.20;;;;;;;;;;5063700;28;20203;-71
2022/05/14 05:35:29;;;;;;;3.03;2.70;;;;;;;;;;5065560;28;20237;-71
2022/05/14 05:37:57;;;;;;;4.30;3.33;;;;;;;;;;5058565;28;20233;-71
2022/05/14 05:40:26;;;;;;;5.33;3.63;;;;;;;;;;5057198;28;20207;-71
2022/05/14 05:42:55;;;;;;;4.23;3.50;;;;;;;;;;5057137;28;20206;-71
2022/05/14 05:45:24;;;;;;;3.93;3.13;;;;;;;;;;5057148;28;20246;-71
2022/05/14 05:47:52;;;;;;;5.37;3.47;;;;;;;;;;5057010;28;20277;-71
2022/05/14 05:50:20;;;;;;;6.17;3.27;;;;;;;;;;5070531;28;20202;-71
2022/05/14 05:52:50;;;;;;;7.53;3.73;;;;;;;;;;5057138;28;20256;-71
2022/05/14 05:58:05;;;;;;;5.27;3.33;;;;;;;;;;5067214;28;20619;-70
2022/05/14 06:00:34;;;;;;;3.90;3.00;;;;;;;;;;5069696;28;20288;-70
2022/05/14 06:03:02;;;;;;;4.47;3.30;;;;;;;;;;5065568;28;20199;-71
2022/05/14 06:05:37;;;;;;;5.13;3.30;;;;;;;;;;5065222;28;20328;-71
2022/05/14 06:08:07;;;;;;;6.30;2.90;;;;;;;;;;5056599;28;20233;-71
2022/05/14 06:10:35;;;;;;;8.40;2.90;;;;;;;;;;5063826;28;20251;-71
2022/05/14 06:13:05;;;;;;;6.53;2.90;;;;;;;;;;5074906;28;20206;-71
2022/05/14 06:15:33;;;;;;;3.67;2.63;;;;;;;;;;5060391;28;20641;-72
2022/05/14 06:18:02;;;;;;;2.87;2.33;;;;;;;;;;5056826;28;20207;-71
2022/05/14 06:20:30;;;;;;;6.37;3.30;;;;;;;;;;5056555;28;20214;-71
2022/05/14 06:23:01;;;;;;;3.47;2.57;;;;;;;;;;5070569;28;20624;-72
2022/05/14 06:25:30;;;;;;;4.20;2.80;;;;;;;;;;5076875;28;20222;-72
2022/05/14 06:27:58;;;;;;;4.87;3.40;;;;;;;;;;5076798;28;20240;-72
2022/05/14 06:30:28;;;;;;;2.63;2.40;;;;;;;;;;5073466;28;20206;-72
2022/05/14 06:33:01;;;;;;;5.10;2.90;;;;;;;;;;5066306;28;20617;-72
2022/05/14 06:35:29;;;;;;;3.20;2.80;;;;;;;;;;5067178;28;20276;-72
2022/05/14 06:37:57;;;;;;;6.70;3.27;;;;;;;;;;5058253;28;20203;-72
2022/05/14 06:40:25;;;;;;;6.07;2.80;;;;;;;;;;5067683;28;20654;-71
2022/05/14 06:42:53;;;;;;;5.70;3.30;;;;;;;;;;5067310;28;20606;-72
2022/05/14 06:45:22;;;;;;;6.87;2.90;;;;;;;;;;5060533;28;20230;-72
2022/05/14 06:47:51;;;;;;;5.77;3.10;;;;;;;;;;5056552;28;20203;-72
2022/05/14 06:50:19;;;;;;;6.17;2.80;;;;;;;;;;5056186;28;20211;-71
2022/05/14 06:52:49;;;;;;;5.57;2.67;;;;;;;;;;5057834;28;20616;-72
2022/05/14 06:55:21;;;;;;;3.97;3.00;;;;;;;;;;5071054;28;20280;-72
2022/05/14 06:57:51;;;;;;;4.27;3.30;;;;;;;;;;5069312;28;20256;-73
2022/05/14 07:00:21;;;;;;;4.80;2.73;;;;;;;;;;5067105;28;20202;-74
2022/05/14 07:02:51;;;;;;;6.57;3.30;;;;;;;;;;5072287;28;20264;-74
2022/05/14 07:08:07;;;;;;;6.50;2.80;;;;;;;;;;5059761;28;20628;-74
2022/05/14 07:10:35;;;;;;;5.67;3.20;;;;;;;;;;5059562;28;20207;-74
2022/05/14 07:13:03;;;;;;;3.43;2.77;;;;;;;;;;5059859;28;20213;-74
2022/05/14 07:15:32;;;;;;;5.17;3.23;;;;;;;;;;5059666;28;20237;-74
2022/05/14 07:18:01;;;;;;;3.43;2.73;;;;;;;;;;5070019;28;20202;-73
2022/05/14 07:20:29;;;;;;;4.60;3.03;;;;;;;;;;5061021;28;20206;-73
2022/05/14 07:22:58;;;;;;;5.90;3.20;;;;;;;;;;5059720;28;20210;-74
2022/05/14 07:25:27;;;;;;;3.30;2.57;;;;;;;;;;5059249;28;20227;-74
2022/05/14 07:27:55;;;;;;;5.60;2.80;;;;;;;;;;5067552;28;20273;-75
2022/05/14 07:30:23;;;;;;;5.03;2.87;;;;;;;;;;5073146;28;20206;-70
2022/05/14 07:32:51;;;;;;;5.87;2.83;;;;;;;;;;5071063;28;20242;-70
2022/05/14 07:35:21;;;;;;;7.20;3.23;;;;;;;;;;5071826;28;20237;-74
2022/05/14 07:37:51;;;;;;;3.43;2.73;;;;;;;;;;5070311;28;20207;-72
2022/05/14 07:40:21;;;;;;;5.13;2.80;;;;;;;;;;5070995;28;20198;-73
2022/05/14 07:42:51;;;;;;;4.67;3.13;;;;;;;;;;5067855;28;20711;-73
2022/05/14 07:45:22;;;;;;;6.13;3.80;;;;;;;;;;5071112;28;20190;-73
2022/05/14 07:47:51;;;;;;;3.90;2.87;;;;;;;;;;5070606;28;20202;-73
2022/05/14 07:50:19;;;;;;;5.57;2.80;;;;;;;;;;5070860;28;20194;-73
2022/05/14 07:52:49;;;;;;;3.70;3.40;;;;;;;;;;5070311;28;20213;-72
2022/05/14 07:55:17;;;;;;;8.73;3.70;;;;;;;;;;5064148;28;20257;-71
2022/05/14 07:57:45;;;;;;;6.87;3.50;;;;;;;;;;5077890;28;20206;-75
2022/05/14 08:00:14;;;;;;;4.50;3.00;;;;;;;;;;5070787;28;20198;-77
2022/05/14 08:02:43;;;;;;;3.40;3.10;;;;;;;;;;5071293;28;20199;-76
2022/05/14 08:05:13;;;;;;;4.00;3.30;;;;;;;;;;5057620;28;20239;-77
2022/05/14 08:07:41;;;;;;;3.80;3.17;;;;;;;;;;5068267;28;20245;-76
2022/05/14 08:10:13;;;;;;;5.43;3.33;;;;;;;;;;5058965;28;20206;-77
2022/05/14 08:12:42;;;;;;;6.67;3.87;;;;;;;;;;5059000;28;20211;-76
2022/05/14 08:15:11;;;;;;;8.80;3.50;;;;;;;;;;5060822;28;20665;-76
2022/05/14 08:17:40;;;;;;;8.97;3.23;;;;;;;;;;5069523;28;20205;-77
2022/05/14 08:20:09;;;;;;;5.80;3.53;;;;;;;;;;5068531;28;20229;-75
2022/05/14 08:25:25;;;;;;;5.90;3.20;;;;;;;;;;5069147;28;20265;-76
2022/05/14 08:27:53;;;;;;;6.47;3.60;;;;;;;;;;5069161;28;20224;-75
2022/05/14 08:30:22;;;;;;;4.47;3.63;;;;;;;;;;5067749;28;20206;-75
2022/05/14 08:32:50;;;;;;;5.30;3.47;;;;;;;;;;5067322;28;20203;-74
2022/05/14 08:35:19;;;;;;;8.70;4.73;;;;;;;;;;5071851;28;20567;-75
2022/05/14 08:37:49;;;;;;;5.73;4.27;;;;;;;;;;5071308;28;20683;-76
2022/05/14 08:40:19;;;;;;;7.90;2.80;;;;;;;;;;5068264;28;20260;-74
2022/05/14 08:42:57;;;;;;;3.73;2.73;;;;;;;;;;5069564;28;20226;-74
2022/05/14 08:45:28;;;;;;;4.67;2.80;;;;;;;;;;5069395;28;20284;-76
2022/05/14 08:47:57;;;;;;;3.37;2.57;;;;;;;;;;5067918;28;20255;-75
2022/05/14 08:50:28;;;;;;;6.90;2.80;;;;;;;;;;5069504;28;20660;-75
2022/05/14 08:53:00;;;;;;;6.27;3.23;;;;;;;;;;5069046;28;20205;-76
2022/05/14 08:55:32;;;;;;;6.20;2.57;;;;;;;;;;5070725;28;20232;-74
2022/05/14 08:58:07;;;;;;;3.67;3.23;;;;;;;;;;5067829;28;20202;-74
2022/05/14 09:00:35;;;;;;;5.47;3.00;;;;;;;;;;5068370;28;20202;-75
2022/05/14 09:03:03;;;;;;;4.03;3.00;;;;;;;;;;5077082;28;20199;-75
2022/05/14 09:05:34;;;;;;;4.53;2.80;;;;;;;;;;5059123;28;20281;-77
2022/05/14 09:08:02;;;;;;;4.80;2.60;;;;;;;;;;5066161;28;20254;-75
2022/05/14 09:10:32;;;;;;;5.70;3.00;;;;;;;;;;5071577;28;20252;-76
2022/05/14 09:13:03;;;;;;;5.03;2.60;;;;;;;;;;5068165;28;20651;-76
2022/05/14 09:15:32;;;;;;;4.90;2.30;;;;;;;;;;5068822;28;20257;-72
2022/05/14 09:18:05;;;;;;;6.60;2.43;;;;;;;;;;5067924;28;20743;-66
2022/05/14 09:20:39;;;;;;;20.47;10.53;;;;;;;;;;5073543;28;20207;-71
2022/05/14 09:23:07;;;;;;;2.93;2.53;;;;;;;;;;5068055;28;20201;-71
2022/05/14 09:25:38;;;;;;;2.63;2.40;;;;;;;;;;5070743;28;20216;-73
2022/05/14 09:28:24;;;;;;;5.43;2.83;;;;;;;;;;5067965;28;20197;-74
2022/05/14 09:30:54;;;;;;;3.40;2.37;;;;;;;;;;5063441;28;20199;-75
2022/05/14 09:33:27;;;;;;;4.87;3.00;;;;;;;;;;5060925;28;20760;-69
2022/05/14 09:35:56;;;;;;;3.43;2.30;;;;;;;;;;5072263;28;20256;-72
2022/05/14 09:38:25;;;;;;;7.83;2.30;;;;;;;;;;5062764;28;20234;-73
2022/05/14 09:40:54;;;;;;;3.23;2.93;;;;;;;;;;5059816;28;20655;-72
2022/05/14 09:43:33;;;;;;;6.20;2.90;;;;;;;;;;5068720;28;20233;-73
2022/05/14 09:46:02;;;;;;;6.60;2.50;;;;;;;;;;5057602;28;20218;-73
2022/05/14 09:48:31;;;;;;;2.83;2.10;;;;;;;;;;5057032;28;20196;-72
2022/05/14 09:51:01;;;;;;;5.37;2.30;;;;;;;;;;5062896;28;20208;-71
2022/05/14 09:53:31;;;;;;;3.10;2.80;;;;;;;;;;5073608;28;20203;-71
2022/05/14 09:56:13;;;;;;;2.97;2.60;;;;;;;;;;5076120;28;20258;-78
2022/05/14 09:58:47;;;;;;;4.90;3.07;;;;;;;;;;5068726;28;20197;-72
2022/05/14 10:01:19;;;;;;;5.33;2.30;;;;;;;;;;5066724;28;20226;-77
2022/05/14 10:04:07;;;;;;;2.93;2.63;;;;;;;;;;5062989;28;20245;-74
2022/05/14 10:06:39;;;;;;;4.70;2.20;;;;;;;;;;5063080;28;20221;-73
2022/05/14 10:09:10;;;;;;;5.67;2.83;;;;;;;;;;5057010;28;20253;-74
2022/05/14 10:11:40;;;;;;;6.30;2.60;;;;;;;;;;5068053;28;20206;-75
2022/05/14 10:14:15;;;;;;;3.47;2.60;;;;;;;;;;5068535;28;20202;-75
2022/05/14 10:16:57;;;;;;;4.23;2.53;;;;;;;;;;5059721;28;20275;-74
2022/05/14 10:19:31;;;;;;;4.83;2.47;;;;;;;;;;5068822;28;20200;-70
2022/05/14 10:22:03;;;;;;;2.43;2.13;;;;;;;;;;5068360;28;20286;-77
2022/05/14 10:27:29;;;;;;;4.63;2.20;;;;;;;;;;5067595;28;20220;-72
2022/05/14 10:30:07;;;;;;;5.60;2.50;;;;;;;;;;5077525;28;20669;-72
2022/05/14 10:32:37;;;;;;;3.57;2.33;;;;;;;;;;5081030;28;20237;-72
2022/05/14 10:35:09;;;;;;;4.13;2.40;;;;;;;;;;5076773;28;20230;-72
2022/05/14 10:37:43;;;;;;;4.40;2.00;;;;;;;;;;5060615;28;20292;-72
2022/05/14 10:40:16;;;;;;;4.93;2.70;;;;;;;;;;5060829;28;20240;-72
2022/05/14 10:42:57;;;;;;;4.53;2.27;;;;;;;;;;5060740;28;20236;-72
2022/05/14 10:45:29;;;;;;;2.90;2.57;;;;;;;;;;5080434;28;20235;-72
2022/05/14 10:48:01;;;;;;;4.17;2.13;;;;;;;;;;5080378;28;20593;-71
2022/05/14 10:50:29;;;;;;;3.10;2.10;;;;;;;;;;5062419;28;20656;-71
2022/05/14 10:52:58;;;;;;;2.93;2.30;;;;;;;;;;5061052;28;20208;-73
2022/05/14 10:55:29;;;;;;;2.90;2.20;;;;;;;;;;5060648;28;20249;-72
2022/05/14 10:58:01;;;;;;;2.90;2.20;;;;;;;;;;5060012;28;20224;-72
2022/05/14 11:00:39;;;;;;;2.17;2.00;;;;;;;;;;5077714;28;20232;-72
2022/05/14 11:03:12;;;;;;;3.97;2.40;;;;;;;;;;5080131;28;20206;-72
2022/05/14 11:05:50;;;;;;;5.43;2.57;;;;;;;;;;5060176;28;20259;-72
2022/05/14 11:08:28;;;;;;;3.00;1.97;;;;;;;;;;5060067;28;20237;-72
2022/05/14 11:11:03;;;;;;;3.57;2.43;;;;;;;;;;5060407;28;20245;-71
2022/05/14 11:13:31;;;;;;;2.90;2.07;;;;;;;;;;5056530;28;20232;-72
2022/05/14 11:16:02;;;;;;;3.67;2.73;;;;;;;;;;5057249;28;20266;-72
2022/05/14 11:18:30;;;;;;;4.73;2.00;;;;;;;;;;5052917;28;20253;-72
2022/05/14 11:20:59;;;;;;;2.83;2.10;;;;;;;;;;5040049;28;20208;-72
2022/05/14 11:23:32;;;;;;;3.30;1.87;;;;;;;;;;5039587;28;20740;-71
2022/05/14 11:26:05;;;;;;;3.50;2.30;;;;;;;;;;5039699;28;20261;-71
2022/05/14 11:28:33;;;;;;;3.53;2.67;;;;;;;;;;5048015;28;20206;-73
2022/05/14 11:31:15;;;;;;;6.90;2.47;;;;;;;;;;5058840;28;20549;-73
2022/05/14 11:33:44;;;;;;;3.03;2.43;;;;;;;;;;5059616;28;20255;-73
2022/05/14 11:36:20;;;;;;;4.10;2.47;;;;;;;;;;5056013;28;20234;-73
2022/05/14 11:38:52;;;;;;;3.27;2.50;;;;;;;;;;5039687;28;20204;-73
2022/05/14 11:41:28;;;;;;;5.00;2.23;;;;;;;;;;5039826;28;20236;-73
2022/05/14 11:43:56;;;;;;;3.90;2.50;;;;;;;;;;5039712;28;20266;-73
2022/05/14 11:46:28;;;;;;;3.20;1.80;;;;;;;;;;5039603;28;20260;-73
2022/05/14 11:48:59;;;;;;;4.00;3.27;;;;;;;;;;5039472;28;20216;-73
2022/05/14 11:51:33;;;;;;;3.53;2.00;;;;;;;;;;5048417;28;20234;-73
2022/05/14 11:54:04;;;;;;;5.63;2.50;;;;;;;;;;5059445;28;20252;-73
2022/05/14 11:56:40;;;;;;;2.30;2.10;;;;;;;;;;5059355;28;20237;-73
2022/05/14 11:59:11;;;;;;;6.97;2.17;;;;;;;;;;5059491;28;20226;-73
2022/05/14 12:01:43;;;;;;;3.93;1.83;;;;;;;;;;5058248;28;20677;-73
2022/05/14 12:04:13;;;;;;;3.83;2.03;;;;;;;;;;5047878;28;20241;-73
2022/05/14 12:06:50;;;;;;;3.80;1.70;;;;;;;;;;5059178;28;20236;-73
2022/05/14 12:09:23;;;;;;;4.80;1.87;;;;;;;;;;5059007;28;20599;-73
2022/05/14 12:11:56;;;;;;;3.20;1.90;;;;;;;;;;5059160;28;20207;-73
2022/05/14 12:14:28;;;;;;;3.10;1.80;;;;;;;;;;5058858;28;20210;-73
2022/05/14 12:16:58;;;;;;;2.50;2.30;;;;;;;;;;5058639;28;20772;-73
2022/05/14 12:19:27;;;;;;;3.70;2.33;;;;;;;;;;5069972;28;20230;-73
2022/05/14 12:21:56;;;;;;;3.20;2.00;;;;;;;;;;5065570;28;20236;-73
2022/05/14 12:24:27;;;;;;;2.33;1.80;;;;;;;;;;5059049;28;20236;-73
2022/05/14 12:26:55;;;;;;;3.20;1.90;;;;;;;;;;5078597;28;20251;-73
2022/05/14 12:29:24;;;;;;;6.97;2.40;;;;;;;;;;5078522;28;20210;-73
2022/05/14 12:34:45;;;;;;;2.17;1.97;;;;;;;;;;5044828;28;20252;-73
2022/05/14 12:37:17;;;;;;;3.93;1.80;;;;;;;;;;5065558;28;20249;-73
2022/05/14 12:39:46;;;;;;;3.43;1.90;;;;;;;;;;5065411;28;20239;-73
2022/05/14 12:42:15;;;;;;;6.23;2.03;;;;;;;;;;5078608;28;20205;-73
2022/05/14 12:44:45;;;;;;;5.50;2.30;;;;;;;;;;5078331;28;20209;-73
2022/05/14 12:47:23;;;;;;;3.30;1.47;;;;;;;;;;5058126;28;20693;-73
2022/05/14 12:49:51;;;;;;;3.60;1.97;;;;;;;;;;5057809;28;20612;-74
2022/05/14 12:52:20;;;;;;;5.07;2.30;;;;;;;;;;5058362;28;20822;-73
2022/05/14 12:54:51;;;;;;;3.87;2.57;;;;;;;;;;5058104;28;20229;-73
2022/05/14 12:57:20;;;;;;;1.97;1.87;;;;;;;;;;5057948;28;20230;-73
2022/05/14 12:59:48;;;;;;;5.10;1.90;;;;;;;;;;5069451;28;20232;-72
2022/05/14 13:02:26;;;;;;;6.27;1.80;;;;;;;;;;5066691;28;20255;-72
2022/05/14 13:04:56;;;;;;;3.93;2.10;;;;;;;;;;5077393;28;20265;-74
2022/05/14 13:07:24;;;;;;;3.50;2.17;;;;;;;;;;5077888;28;20262;-73
2022/05/14 13:09:53;;;;;;;2.60;1.60;;;;;;;;;;5076225;28;20700;-73
2022/05/14 13:12:22;;;;;;;2.27;1.70;;;;;;;;;;5058163;28;20246;-73
2022/05/14 13:14:53;;;;;;;3.93;2.03;;;;;;;;;;5057942;28;20246;-73
2022/05/14 13:17:22;;;;;;;3.53;1.87;;;;;;;;;;5057724;28;20256;-73
2022/05/14 13:19:56;;;;;;;2.43;2.00;;;;;;;;;;5057619;28;20213;-73
2022/05/14 13:22:29;;;;;;;6.00;1.83;;;;;;;;;;5057622;28;20223;-73
2022/05/14 13:24:58;;;;;;;1.70;1.60;;;;;;;;;;5057689;28;20238;-73
2022/05/14 13:27:31;;;;;;;2.50;2.23;;;;;;;;;;5057624;28;20231;-73
2022/05/14 13:30:03;;;;;;;3.10;2.07;;;;;;;;;;5057982;28;20235;-73
2022/05/14 13:32:32;;;;;;;1.93;1.70;;;;;;;;;;5057754;28;20202;-73
2022/05/14 13:37:54;;;;;;;3.23;1.40;;;;;;;;;;5059435;28;20291;-73
2022/05/14 13:40:24;;;;;;;1.87;1.63;;;;;;;;;;5057452;28;20234;-73
2022/05/14 13:42:54;;;;;;;4.17;1.57;;;;;;;;;;5057229;28;20644;-73
2022/05/14 13:45:25;;;;;;;2.80;1.67;;;;;;;;;;5057388;28;20232;-73
2022/05/14 13:47:54;;;;;;;1.30;1.20;;;;;;;;;;5064187;28;20206;-73
2022/05/14 13:50:25;;;;;;;2.77;1.80;;;;;;;;;;5076549;28;20234;-73
2022/05/14 13:52:54;;;;;;;5.40;2.57;;;;;;;;;;5065246;28;20239;-73
2022/05/14 13:55:31;;;;;;;2.33;2.00;;;;;;;;;;5077450;28;20255;-73
2022/05/14 13:58:00;;;;;;;2.63;1.60;;;;;;;;;;5077386;28;20223;-73
2022/05/14 14:00:34;;;;;;;2.13;1.80;;;;;;;;;;5073613;28;20207;-73
2022/05/14 14:03:03;;;;;;;2.53;2.33;;;;;;;;;;5077125;28;20261;-73
2022/05/14 14:05:36;;;;;;;2.87;1.73;;;;;;;;;;5060904;28;20309;-73
2022/05/14 14:08:07;;;;;;;4.57;1.80;;;;;;;;;;5061041;28;20270;-73
2022/05/14 14:10:36;;;;;;;6.43;2.07;;;;;;;;;;5061410;28;20294;-72
2022/05/14 14:13:08;;;;;;;3.73;1.80;;;;;;;;;;5061572;28;20234;-72
2022/05/14 14:15:38;;;;;;;3.63;1.60;;;;;;;;;;5061569;28;20228;-73
2022/05/14 14:18:07;;;;;;;3.43;1.93;;;;;;;;;;5078281;28;20253;-73
2022/05/14 14:20:37;;;;;;;1.90;1.53;;;;;;;;;;5078476;28;20240;-73
2022/05/14 14:23:08;;;;;;;3.27;1.97;;;;;;;;;;5081077;28;20241;-72
2022/05/14 14:25:40;;;;;;;4.03;1.70;;;;;;;;;;5081236;28;20229;-73
2022/05/14 14:28:09;;;;;;;4.73;1.70;;;;;;;;;;5081194;28;20203;-73
2022/05/14 14:30:37;;;;;;;2.17;1.60;;;;;;;;;;5080206;28;20229;-72
2022/05/14 14:33:06;;;;;;;2.33;1.60;;;;;;;;;;5067512;28;20204;-73
2022/05/14 14:35:34;;;;;;;2.23;1.60;;;;;;;;;;5070442;28;20258;-73
2022/05/14 14:38:04;;;;;;;3.93;1.87;;;;;;;;;;5080613;28;20246;-73
2022/05/14 14:40:32;;;;;;;2.60;1.60;;;;;;;;;;5080813;28;20637;-73
2022/05/14 14:43:01;;;;;;;3.40;1.70;;;;;;;;;;5080494;28;20694;-73
2022/05/14 14:45:37;;;;;;;2.47;1.60;;;;;;;;;;5080546;28;20233;-74
2022/05/14 14:48:05;;;;;;;2.30;1.70;;;;;;;;;;5079604;28;20559;-73
2022/05/14 14:50:33;;;;;;;3.87;1.60;;;;;;;;;;5080349;28;20206;-73
2022/05/14 14:53:03;;;;;;;2.87;1.77;;;;;;;;;;5080917;28;20289;-73
2022/05/14 14:55:31;;;;;;;3.60;1.70;;;;;;;;;;5080745;28;20258;-73
2022/05/14 14:57:59;;;;;;;1.60;1.50;;;;;;;;;;5080440;28;20636;-73
2022/05/14 15:00:28;;;;;;;6.53;2.17;;;;;;;;;;5077742;28;20258;-73
2022/05/14 15:02:59;;;;;;;4.20;1.83;;;;;;;;;;5067149;28;20669;-73
2022/05/14 15:05:29;;;;;;;5.43;1.73;;;;;;;;;;5063252;28;20284;-72
2022/05/14 15:07:58;;;;;;;3.03;1.73;;;;;;;;;;5060783;28;20206;-73
2022/05/14 15:10:28;;;;;;;3.40;1.80;;;;;;;;;;5060377;28;20202;-73
2022/05/14 15:12:58;;;;;;;2.93;1.73;;;;;;;;;;5059705;28;20234;-73
2022/05/14 15:15:26;;;;;;;4.80;2.03;;;;;;;;;;5060284;28;20263;-73
2022/05/14 15:17:55;;;;;;;3.37;1.90;;;;;;;;;;5076643;28;20242;-73
2022/05/14 15:20:24;;;;;;;3.83;1.70;;;;;;;;;;5060245;28;20232;-73
2022/05/14 15:22:54;;;;;;;2.67;1.90;;;;;;;;;;5060129;28;20213;-73
2022/05/14 15:25:22;;;;;;;3.37;1.50;;;;;;;;;;5059799;28;20246;-73